createdAt,value
2018-03-03T00:01:06.915Z,98.90
2018-03-03T00:03:35.814Z,93.23
2018-03-03T00:06:04.571Z,88.63
2018-03-03T00:08:33.166Z,89.80
2018-03-03T00:11:01.832Z,95.63
2018-03-03T00:13:29.704Z,94.93
2018-03-03T00:15:58.056Z,92.10
2018-03-03T00:18:26.020Z,100.20
2018-03-03T00:20:53.921Z,97.13
2018-03-03T00:23:22.818Z,93.03
2018-03-03T00:25:50.748Z,88.33
2018-03-03T00:28:18.654Z,90.27
2018-03-03T00:30:46.467Z,93.77
2018-03-03T00:33:14.487Z,86.77
2018-03-03T00:35:43.181Z,91.93
2018-03-03T00:38:12.046Z,93.80
2018-03-03T00:40:40.114Z,88.73
2018-03-03T00:43:08.168Z,83.80
2018-03-03T00:45:36.105Z,87.20
2018-03-03T00:48:04.241Z,85.07
2018-03-03T00:50:32.531Z,85.60
2018-03-03T00:53:01.681Z,80.90
2018-03-03T00:55:30.476Z,81.07
2018-03-03T00:57:58.587Z,81.80
2018-03-03T01:00:27.471Z,85.80
2018-03-03T01:02:56.144Z,79.97
2018-03-03T01:05:24.105Z,81.50
2018-03-03T01:07:51.923Z,80.80
2018-03-03T01:10:20.123Z,82.60
2018-03-03T01:12:48.196Z,75.40
2018-03-03T01:15:16.263Z,76.60
2018-03-03T01:17:44.491Z,74.40
2018-03-03T01:20:13.228Z,74.47
2018-03-03T01:22:41.302Z,75.97
2018-03-03T01:25:09.208Z,74.07
2018-03-03T01:27:37.752Z,79.90
2018-03-03T01:30:05.852Z,83.80
2018-03-03T01:32:33.776Z,78.67
2018-03-03T01:35:01.885Z,77.97
2018-03-03T01:37:29.852Z,78.00
2018-03-03T01:39:57.818Z,79.20
2018-03-03T01:42:25.618Z,70.97
2018-03-03T01:44:54.345Z,75.17
2018-03-03T01:47:22.624Z,74.80
2018-03-03T01:49:50.615Z,71.53
2018-03-03T01:52:18.563Z,74.53
2018-03-03T01:54:47.063Z,72.70
2018-03-03T01:57:16.466Z,71.97
2018-03-03T01:59:44.540Z,71.13
2018-03-03T02:02:12.435Z,68.30
2018-03-03T02:04:41.436Z,63.20
2018-03-03T02:07:09.273Z,65.43
2018-03-03T02:09:38.254Z,67.60
2018-03-03T02:12:06.205Z,63.20
2018-03-03T02:14:34.572Z,65.87
2018-03-03T02:17:02.353Z,63.27
2018-03-03T02:19:30.337Z,64.03
2018-03-03T02:21:58.430Z,60.50
2018-03-03T02:24:27.311Z,64.37
2018-03-03T02:26:56.185Z,59.53
2018-03-03T02:29:24.060Z,59.03
2018-03-03T02:31:52.020Z,58.13
2018-03-03T02:34:20.915Z,57.53
2018-03-03T02:36:48.783Z,54.23
2018-03-03T02:39:16.648Z,55.80
2018-03-03T02:41:44.514Z,56.73
2018-03-03T02:44:12.299Z,62.57
2018-03-03T02:46:41.152Z,59.60
2018-03-03T02:49:09.931Z,56.47
2018-03-03T02:51:38.001Z,51.00
2018-03-03T02:54:05.971Z,46.93
2018-03-03T02:56:33.860Z,47.93
2018-03-03T02:59:02.624Z,41.00
2018-03-03T03:01:30.908Z,42.10
2018-03-03T03:03:59.931Z,45.57
2018-03-03T03:06:28.025Z,45.10
2018-03-03T03:08:55.851Z,42.90
2018-03-03T03:11:24.210Z,42.87
2018-03-03T03:13:53.428Z,42.03
2018-03-03T03:16:21.317Z,43.23
2018-03-03T03:18:50.120Z,43.17
2018-03-03T03:21:18.157Z,41.90
2018-03-03T03:23:46.101Z,38.23
2018-03-03T03:26:14.007Z,39.10
2018-03-03T03:28:42.876Z,39.50
2018-03-03T03:31:11.164Z,39.30
2018-03-03T03:33:39.205Z,39.60
2018-03-03T03:36:07.580Z,38.70
2018-03-03T03:38:35.570Z,40.77
2018-03-03T03:41:03.486Z,40.40
2018-03-03T03:43:31.510Z,38.70
2018-03-03T03:45:59.581Z,40.97
2018-03-03T03:48:27.733Z,40.77
2018-03-03T03:50:55.630Z,39.27
2018-03-03T03:53:24.725Z,40.53
2018-03-03T03:55:52.788Z,39.53
2018-03-03T03:58:20.970Z,38.73
2018-03-03T04:00:50.752Z,44.67
2018-03-03T04:03:19.538Z,37.00
2018-03-03T04:05:47.607Z,32.43
2018-03-03T04:08:16.500Z,16.93
2018-03-03T04:10:44.539Z,12.43
2018-03-03T04:13:12.463Z,11.40
2018-03-03T04:15:40.327Z,10.57
2018-03-03T04:18:08.376Z,11.37
2018-03-03T04:20:36.261Z,9.73
2018-03-03T04:23:04.150Z,10.57
2018-03-03T04:25:33.079Z,10.17
2018-03-03T04:28:00.967Z,10.20
2018-03-03T04:30:29.324Z,14.50
2018-03-03T04:32:57.299Z,15.20
2018-03-03T04:35:25.138Z,15.27
2018-03-03T04:37:53.867Z,15.00
2018-03-03T04:40:22.036Z,15.20
2018-03-03T04:42:50.159Z,16.50
2018-03-03T04:45:18.897Z,16.70
2018-03-03T04:47:46.783Z,15.43
2018-03-03T04:50:14.644Z,16.00
2018-03-03T04:52:44.667Z,14.90
2018-03-03T04:55:13.874Z,13.23
2018-03-03T04:57:41.832Z,12.23
2018-03-03T05:00:14.804Z,13.43
2018-03-03T05:02:49.144Z,15.10
2018-03-03T05:05:36.766Z,14.27
2018-03-03T05:08:07.805Z,17.70
2018-03-03T05:10:35.785Z,25.60
2018-03-03T05:13:18.575Z,26.40
2018-03-03T05:15:52.480Z,22.23
2018-03-03T05:18:25.969Z,18.50
2018-03-03T05:20:57.820Z,14.40
2018-03-03T05:23:31.338Z,13.83
2018-03-03T05:26:05.146Z,12.43
2018-03-03T05:28:39.412Z,9.83
2018-03-03T05:31:13.793Z,9.50
2018-03-03T05:33:47.349Z,7.10
2018-03-03T05:36:33.910Z,8.13
2018-03-03T05:39:07.583Z,7.30
2018-03-03T05:41:41.283Z,8.33
2018-03-03T05:44:14.935Z,8.30
2018-03-03T05:46:49.045Z,8.90
2018-03-03T05:49:21.600Z,8.30
2018-03-03T05:52:06.549Z,7.47
2018-03-03T05:54:50.316Z,7.90
2018-03-03T05:57:29.746Z,8.10
2018-03-03T06:00:03.321Z,7.90
2018-03-03T06:02:36.925Z,9.20
2018-03-03T06:05:10.830Z,9.67
2018-03-03T06:07:57.804Z,9.37
2018-03-03T06:10:41.503Z,10.43
2018-03-03T06:13:09.556Z,11.37
2018-03-03T06:15:37.544Z,12.23
2018-03-03T06:18:05.495Z,10.97
2018-03-03T06:20:33.662Z,13.40
2018-03-03T06:23:02.450Z,11.43
2018-03-03T06:25:30.316Z,12.00
2018-03-03T06:27:59.023Z,11.80
2018-03-03T06:30:27.831Z,17.77
2018-03-03T06:32:57.206Z,12.50
2018-03-03T06:35:25.874Z,12.23
2018-03-03T06:37:54.436Z,12.73
2018-03-03T06:40:22.475Z,12.50
2018-03-03T06:42:51.551Z,14.70
2018-03-03T06:45:19.597Z,13.70
2018-03-03T06:47:47.699Z,12.07
2018-03-03T06:50:15.761Z,14.23
2018-03-03T06:52:44.281Z,17.07
2018-03-03T06:55:12.216Z,15.30
2018-03-03T06:57:40.177Z,12.77
2018-03-03T07:00:08.228Z,12.17
2018-03-03T07:02:36.097Z,10.57
2018-03-03T07:05:06.556Z,12.87
2018-03-03T07:07:38.943Z,13.17
2018-03-03T07:10:10.223Z,13.30
2018-03-03T07:12:38.535Z,13.73
2018-03-03T07:15:06.670Z,13.00
2018-03-03T07:17:35.933Z,11.20
2018-03-03T07:20:05.115Z,11.93
2018-03-03T07:22:33.750Z,10.17
2018-03-03T07:25:01.740Z,9.53
2018-03-03T07:27:29.757Z,10.73
2018-03-03T07:29:58.872Z,9.67
2018-03-03T07:32:27.302Z,9.67
2018-03-03T07:34:55.252Z,9.20
2018-03-03T07:37:23.223Z,9.83
2018-03-03T07:39:51.545Z,10.93
2018-03-03T07:42:20.233Z,10.37
2018-03-03T07:44:48.847Z,11.63
2018-03-03T07:47:16.781Z,9.90
2018-03-03T07:49:45.624Z,9.87
2018-03-03T07:52:13.740Z,9.50
2018-03-03T07:54:42.541Z,11.17
2018-03-03T07:57:13.220Z,10.80
2018-03-03T07:59:42.311Z,11.60
2018-03-03T08:02:11.246Z,13.37
2018-03-03T08:04:40.092Z,12.80
2018-03-03T08:07:08.333Z,17.80
2018-03-03T08:09:36.440Z,15.23
2018-03-03T08:12:04.617Z,17.93
2018-03-03T08:14:32.788Z,14.80
2018-03-03T08:17:00.791Z,13.23
2018-03-03T08:19:29.059Z,11.40
2018-03-03T08:21:57.938Z,10.30
2018-03-03T08:24:26.819Z,9.40
2018-03-03T08:26:54.908Z,9.53
2018-03-03T08:29:23.195Z,10.27
2018-03-03T08:31:51.230Z,8.47
2018-03-03T08:34:19.305Z,8.77
2018-03-03T08:36:47.195Z,10.43
2018-03-03T08:39:15.241Z,11.40
2018-03-03T08:41:43.188Z,11.50
2018-03-03T08:44:12.408Z,12.40
2018-03-03T08:46:40.382Z,12.23
2018-03-03T08:49:08.601Z,12.87
2018-03-03T08:51:37.684Z,13.23
2018-03-03T08:54:06.499Z,11.20
2018-03-03T08:56:34.535Z,11.87
2018-03-03T08:59:02.784Z,12.50
2018-03-03T09:01:31.058Z,13.60
2018-03-03T09:03:59.436Z,11.73
2018-03-03T09:06:27.613Z,11.70
2018-03-03T09:09:06.850Z,9.83
2018-03-03T09:11:35.056Z,10.43
2018-03-03T09:14:04.215Z,9.90
2018-03-03T09:16:32.284Z,18.03
2018-03-03T09:19:00.358Z,14.20
2018-03-03T09:21:28.668Z,12.83
2018-03-03T09:23:58.655Z,14.03
2018-03-03T09:26:26.542Z,14.70
2018-03-03T09:28:54.724Z,12.60
2018-03-03T09:31:23.962Z,15.67
2018-03-03T09:33:51.886Z,17.10
2018-03-03T09:36:20.138Z,14.67
2018-03-03T09:38:48.107Z,14.57
2018-03-03T09:41:16.216Z,13.70
2018-03-03T09:43:45.358Z,14.70
2018-03-03T09:46:13.874Z,17.50
2018-03-03T09:48:42.694Z,13.60
2018-03-03T09:51:11.538Z,14.87
2018-03-03T09:53:39.707Z,16.10
2018-03-03T09:56:07.984Z,13.27
2018-03-03T09:58:36.095Z,14.93
2018-03-03T10:01:05.149Z,15.10
2018-03-03T10:03:33.114Z,16.80
2018-03-03T10:06:01.128Z,16.67
2018-03-03T10:08:29.502Z,18.40
2018-03-03T10:10:58.390Z,18.90
2018-03-03T10:13:27.187Z,21.10
2018-03-03T10:15:56.174Z,28.67
2018-03-03T10:18:24.413Z,23.97
2018-03-03T10:20:52.522Z,19.20
2018-03-03T10:23:20.828Z,25.80
2018-03-03T10:25:49.190Z,25.60
2018-03-03T10:28:18.293Z,29.03
2018-03-03T10:30:46.621Z,32.80
2018-03-03T10:33:14.690Z,36.63
2018-03-03T10:35:42.723Z,34.10
2018-03-03T10:38:10.932Z,34.07
2018-03-03T10:40:39.235Z,38.50
2018-03-03T10:43:07.707Z,46.53
2018-03-03T10:45:35.801Z,43.40
2018-03-03T10:48:04.566Z,45.90
2018-03-03T10:50:32.770Z,45.40
2018-03-03T10:53:01.510Z,45.90
2018-03-03T10:55:32.675Z,45.10
2018-03-03T10:58:01.708Z,44.83
2018-03-03T11:00:30.645Z,43.73
2018-03-03T11:02:59.844Z,41.73
2018-03-03T11:05:27.932Z,43.50
2018-03-03T11:07:55.878Z,42.30
2018-03-03T11:10:23.864Z,39.60
2018-03-03T11:12:52.824Z,39.80
2018-03-03T11:15:21.036Z,38.30
2018-03-03T11:17:49.080Z,40.87
2018-03-03T11:20:17.256Z,40.47
2018-03-03T11:22:45.100Z,39.90
2018-03-03T11:25:13.018Z,39.63
2018-03-03T11:27:42.329Z,38.27
2018-03-03T11:30:10.305Z,41.17
2018-03-03T11:32:38.983Z,39.87
2018-03-03T11:35:06.942Z,39.07
2018-03-03T11:37:36.829Z,41.57
2018-03-03T11:40:04.934Z,40.20
2018-03-03T11:42:33.280Z,36.30
2018-03-03T11:45:01.256Z,37.00
2018-03-03T11:47:29.365Z,38.10
2018-03-03T11:49:57.730Z,37.70
2018-03-03T11:52:25.663Z,38.47
2018-03-03T11:54:53.958Z,35.20
2018-03-03T11:57:22.220Z,36.43
2018-03-03T11:59:50.130Z,35.30
2018-03-03T12:02:18.972Z,33.93
2018-03-03T12:04:46.967Z,30.50
2018-03-03T12:07:14.920Z,29.33
2018-03-03T12:09:43.832Z,31.97
2018-03-03T12:12:12.698Z,33.40
2018-03-03T12:14:40.837Z,31.83
2018-03-03T12:17:09.247Z,31.80
2018-03-03T12:19:37.318Z,31.63
2018-03-03T12:22:05.397Z,33.27
2018-03-03T12:24:33.473Z,29.63
2018-03-03T12:27:01.441Z,31.37
2018-03-03T12:29:30.218Z,29.40
2018-03-03T12:31:58.142Z,28.90
2018-03-03T12:34:27.216Z,31.33
2018-03-03T12:36:56.377Z,30.40
2018-03-03T12:39:24.373Z,33.40
2018-03-03T12:41:52.454Z,30.23
2018-03-03T12:44:20.523Z,29.33
2018-03-03T12:46:48.352Z,28.13
2018-03-03T12:49:16.355Z,27.70
2018-03-03T12:51:44.314Z,28.10
2018-03-03T12:54:12.473Z,28.33
2018-03-03T12:56:40.438Z,28.27
2018-03-03T12:59:08.710Z,28.97
2018-03-03T13:01:36.736Z,27.50
2018-03-03T13:04:05.671Z,25.90
2018-03-03T13:06:33.692Z,22.97
2018-03-03T13:09:02.432Z,23.67
2018-03-03T13:11:30.526Z,24.70
2018-03-03T13:13:58.984Z,23.47
2018-03-03T13:16:26.985Z,24.43
2018-03-03T13:18:55.741Z,24.53
2018-03-03T13:21:23.927Z,24.90
2018-03-03T13:23:52.231Z,23.90
2018-03-03T13:26:20.893Z,22.50
2018-03-03T13:28:48.867Z,24.93
2018-03-03T13:31:16.943Z,22.77
2018-03-03T13:33:44.754Z,24.87
2018-03-03T13:36:12.781Z,23.73
2018-03-03T13:38:40.976Z,23.60
2018-03-03T13:41:09.818Z,25.23
2018-03-03T13:43:37.788Z,24.93
2018-03-03T13:46:05.867Z,27.47
2018-03-03T13:48:33.878Z,25.50
2018-03-03T13:51:03.641Z,25.30
2018-03-03T13:53:31.521Z,26.83
2018-03-03T13:56:00.485Z,24.47
2018-03-03T13:58:28.496Z,24.67
2018-03-03T14:00:57.148Z,24.60
2018-03-03T14:03:25.220Z,25.80
2018-03-03T14:05:53.286Z,25.50
2018-03-03T14:08:21.650Z,28.07
2018-03-03T14:10:49.453Z,25.17
2018-03-03T14:13:17.610Z,25.50
2018-03-03T14:15:45.895Z,27.80
2018-03-03T14:18:14.288Z,27.17
2018-03-03T14:20:42.864Z,26.80
2018-03-03T14:23:11.043Z,30.17
2018-03-03T14:25:39.297Z,28.70
2018-03-03T14:28:08.305Z,29.10
2018-03-03T14:30:36.258Z,30.10
2018-03-03T14:33:04.251Z,30.37
2018-03-03T14:35:33.014Z,29.50
2018-03-03T14:38:01.019Z,30.27
2018-03-03T14:40:29.371Z,32.10
2018-03-03T14:42:57.522Z,30.60
2018-03-03T14:45:25.714Z,32.80
2018-03-03T14:47:53.661Z,30.80
2018-03-03T14:50:21.580Z,33.70
2018-03-03T14:52:51.050Z,33.13
2018-03-03T14:55:19.143Z,30.00
2018-03-03T14:57:47.098Z,31.97
2018-03-03T15:00:15.773Z,31.93
2018-03-03T15:02:44.065Z,31.70
2018-03-03T15:05:12.872Z,32.10
2018-03-03T15:07:41.361Z,34.77
2018-03-03T15:10:13.818Z,33.13
2018-03-03T15:12:43.217Z,32.07
2018-03-03T15:15:13.131Z,31.47
2018-03-03T15:17:41.489Z,32.50
2018-03-03T15:20:09.900Z,31.80
2018-03-03T15:22:38.244Z,32.63
2018-03-03T15:25:06.338Z,33.70
2018-03-03T15:27:35.245Z,34.37
2018-03-03T15:30:04.101Z,33.80
2018-03-03T15:32:32.546Z,33.67
2018-03-03T15:35:00.680Z,31.90
2018-03-03T15:37:28.859Z,35.93
2018-03-03T15:39:57.771Z,30.30
2018-03-03T15:42:25.936Z,30.57
2018-03-03T15:44:54.786Z,31.00
2018-03-03T15:47:23.052Z,29.30
2018-03-03T15:49:51.090Z,32.07
2018-03-03T15:52:19.292Z,31.87
2018-03-03T15:54:47.685Z,31.20
2018-03-03T15:57:15.688Z,31.23
2018-03-03T15:59:44.680Z,31.23
2018-03-03T16:02:13.293Z,32.00
2018-03-03T16:04:41.392Z,32.17
2018-03-03T16:07:11.412Z,35.43
2018-03-03T16:09:39.304Z,38.27
2018-03-03T16:12:11.279Z,39.10
2018-03-03T16:14:40.274Z,38.50
2018-03-03T16:17:09.130Z,33.53
2018-03-03T16:19:37.195Z,29.60
2018-03-03T16:22:05.314Z,28.10
2018-03-03T16:24:33.253Z,27.57
2018-03-03T16:27:02.244Z,29.00
2018-03-03T16:29:30.526Z,27.20
2018-03-03T16:31:58.778Z,28.47
2018-03-03T16:34:27.208Z,32.20
2018-03-03T16:36:56.183Z,32.00
2018-03-03T16:39:24.133Z,32.67
2018-03-03T16:41:52.119Z,32.23
2018-03-03T16:44:19.902Z,31.40
2018-03-03T16:46:48.963Z,30.37
2018-03-03T16:49:17.041Z,30.20
2018-03-03T16:51:45.191Z,31.23
2018-03-03T16:54:14.013Z,30.00
2018-03-03T16:56:42.092Z,31.63
2018-03-03T16:59:11.101Z,27.97
2018-03-03T17:01:39.935Z,31.80
2018-03-03T17:04:07.950Z,30.57
2018-03-03T17:06:36.896Z,30.63
2018-03-03T17:09:05.176Z,31.90
2018-03-03T17:11:33.253Z,44.47
2018-03-03T17:14:01.213Z,42.30
2018-03-03T17:16:29.592Z,39.17
2018-03-03T17:18:57.607Z,35.07
2018-03-03T17:21:26.452Z,40.60
2018-03-03T17:23:54.696Z,38.43
2018-03-03T17:26:22.726Z,42.23
2018-03-03T17:28:50.696Z,42.70
2018-03-03T17:31:18.687Z,28.60
2018-03-03T17:33:47.611Z,24.27
2018-03-03T17:36:15.800Z,24.03
2018-03-03T17:38:43.769Z,23.43
2018-03-03T17:41:11.662Z,21.23
2018-03-03T17:43:39.747Z,23.37
2018-03-03T17:46:08.733Z,23.90
2018-03-03T17:48:36.831Z,29.33
2018-03-03T17:51:04.860Z,49.77
2018-03-03T17:53:33.257Z,43.77
2018-03-03T17:56:01.071Z,39.53
2018-03-03T17:58:29.390Z,30.90
2018-03-03T18:00:57.542Z,28.20
2018-03-03T18:03:25.540Z,29.20
2018-03-03T18:05:53.677Z,29.90
2018-03-03T18:08:21.743Z,25.20
2018-03-03T18:10:50.775Z,27.17
2018-03-03T18:13:19.847Z,27.00
2018-03-03T18:15:47.712Z,26.73
2018-03-03T18:18:15.879Z,25.47
2018-03-03T18:20:43.855Z,28.57
2018-03-03T18:23:12.361Z,34.07
2018-03-03T18:25:40.606Z,31.30
2018-03-03T18:28:08.772Z,30.97
2018-03-03T18:30:36.848Z,29.00
2018-03-03T18:33:04.811Z,31.60
2018-03-03T18:35:32.787Z,32.10
2018-03-03T18:38:01.062Z,27.03
2018-03-03T18:40:29.282Z,28.47
2018-03-03T18:42:58.546Z,27.93
2018-03-03T18:45:26.777Z,27.60
2018-03-03T18:47:54.919Z,28.10
2018-03-03T18:50:23.299Z,26.60
2018-03-03T18:52:52.378Z,25.80
2018-03-03T18:55:21.144Z,27.60
2018-03-03T18:57:49.266Z,27.30
2018-03-03T19:00:18.202Z,25.53
2018-03-03T19:02:46.389Z,28.63
2018-03-03T19:05:14.757Z,30.83
2018-03-03T19:07:43.246Z,32.17
2018-03-03T19:10:11.109Z,33.50
2018-03-03T19:12:39.159Z,33.60
2018-03-03T19:15:07.606Z,32.87
2018-03-03T19:17:35.553Z,33.83
2018-03-03T19:20:03.415Z,34.50
2018-03-03T19:22:32.486Z,29.93
2018-03-03T19:25:00.922Z,31.80
2018-03-03T19:27:29.672Z,35.90
2018-03-03T19:29:57.721Z,39.10
2018-03-03T19:32:25.982Z,36.90
2018-03-03T19:34:54.303Z,34.47
2018-03-03T19:37:23.808Z,40.17
2018-03-03T19:39:51.667Z,36.17
2018-03-03T19:42:19.828Z,38.13
2018-03-03T19:44:47.993Z,36.87
2018-03-03T19:47:16.002Z,43.33
2018-03-03T19:49:44.862Z,42.40
2018-03-03T19:52:12.830Z,46.30
2018-03-03T19:54:40.899Z,51.27
2018-03-03T19:57:08.988Z,47.57
2018-03-03T19:59:37.135Z,52.97
2018-03-03T20:02:05.239Z,53.87
2018-03-03T20:04:33.993Z,53.57
2018-03-03T20:07:02.193Z,54.47
2018-03-03T20:09:30.460Z,63.20
2018-03-03T20:11:58.416Z,57.60
2018-03-03T20:14:26.623Z,59.57
2018-03-03T20:16:55.404Z,60.20
2018-03-03T20:19:23.579Z,58.10
2018-03-03T20:21:51.466Z,60.97
2018-03-03T20:24:20.210Z,67.70
2018-03-03T20:26:48.581Z,64.07
2018-03-03T20:29:17.706Z,63.80
2018-03-03T20:31:45.685Z,70.40
2018-03-03T20:34:14.433Z,64.70
2018-03-03T20:36:43.252Z,68.43
2018-03-03T20:39:12.016Z,65.80
2018-03-03T20:41:40.216Z,62.20
2018-03-03T20:44:08.088Z,66.10
2018-03-03T20:46:38.069Z,63.07
2018-03-03T20:49:06.952Z,64.80
2018-03-03T20:51:35.132Z,61.13
2018-03-03T20:54:03.430Z,64.60
2018-03-03T20:56:31.748Z,66.53
2018-03-03T20:59:00.510Z,66.60
2018-03-03T21:01:29.460Z,68.50
2018-03-03T21:03:57.734Z,66.60
2018-03-03T21:06:25.936Z,64.83
2018-03-03T21:08:54.068Z,66.63
2018-03-03T21:11:41.670Z,67.03
2018-03-03T21:14:10.607Z,66.70
2018-03-03T21:16:38.808Z,64.63
2018-03-03T21:19:07.087Z,66.97
2018-03-03T21:21:35.941Z,67.87
2018-03-03T21:24:04.283Z,71.50
2018-03-03T21:26:32.529Z,68.20
2018-03-03T21:29:00.818Z,70.77
2018-03-03T21:31:30.076Z,72.87
2018-03-03T21:33:58.249Z,73.17
2018-03-03T21:36:26.761Z,74.13
2018-03-03T21:38:55.739Z,71.20
2018-03-03T21:41:23.967Z,73.50
2018-03-03T21:43:51.963Z,74.50
2018-03-03T21:46:19.950Z,78.73
2018-03-03T21:48:47.922Z,77.33
2018-03-03T21:51:15.787Z,74.20
2018-03-03T21:53:44.656Z,74.80
2018-03-03T21:56:12.521Z,73.50
2018-03-03T21:58:40.602Z,72.10
2018-03-03T22:01:09.010Z,75.30
2018-03-03T22:03:38.068Z,69.70
2018-03-03T22:06:06.453Z,70.77
2018-03-03T22:08:34.341Z,71.70
2018-03-03T22:11:02.379Z,68.60
2018-03-03T22:13:30.570Z,66.87
2018-03-03T22:15:58.608Z,70.00
2018-03-03T22:18:26.372Z,71.33
2018-03-03T22:20:54.224Z,69.07
2018-03-03T22:23:22.012Z,68.27
2018-03-03T22:25:49.860Z,63.60
2018-03-03T22:28:17.653Z,65.77
2018-03-03T22:30:45.550Z,63.60
2018-03-03T22:33:13.589Z,66.47
2018-03-03T22:35:41.383Z,72.00
2018-03-03T22:38:10.659Z,64.97
2018-03-03T22:40:38.384Z,67.90
2018-03-03T22:43:06.323Z,65.30
2018-03-03T22:45:34.055Z,68.50
2018-03-03T22:48:01.807Z,67.30
2018-03-03T22:50:29.548Z,69.63
2018-03-03T22:52:57.667Z,69.93
2018-03-03T22:55:25.922Z,65.13
2018-03-03T22:57:53.719Z,66.07
2018-03-03T23:00:21.756Z,65.23
2018-03-03T23:02:49.524Z,66.50
2018-03-03T23:05:17.599Z,66.40
2018-03-03T23:07:45.469Z,67.67
2018-03-03T23:10:13.173Z,64.80
2018-03-03T23:12:41.834Z,68.13
2018-03-03T23:15:10.373Z,62.40
2018-03-03T23:17:38.281Z,66.90
2018-03-03T23:20:06.334Z,64.50
2018-03-03T23:22:34.044Z,63.30
2018-03-03T23:25:02.686Z,64.03
2018-03-03T23:27:30.407Z,58.90
2018-03-03T23:29:58.526Z,58.90
2018-03-03T23:32:26.420Z,60.57
2018-03-03T23:34:55.065Z,55.67
2018-03-03T23:37:22.823Z,52.93
2018-03-03T23:39:50.595Z,56.57
2018-03-03T23:42:18.556Z,53.87
2018-03-03T23:44:46.294Z,52.80
2018-03-03T23:47:14.084Z,53.90
2018-03-03T23:49:42.775Z,54.23
2018-03-03T23:52:10.644Z,52.37
2018-03-03T23:54:38.407Z,53.00
2018-03-03T23:57:06.180Z,51.87
2018-03-03T23:59:34.012Z,52.67
